Time;durP1;ratioP1;P1;durP2;ratioP2;P2;SDS_P1;SDS_P2;PMS_P1;PMS_P2;Temp;Humidity;BMP_temperature;BMP_pressure;BME280_temperature;BME280_humidity;BME280_pressure;Samples;Min_cycle;Max_cycle;Signal;HPM_P1;HPM_P2
2022/07/08 00:00:36;;;;;;;1.98;1.80;;;15.40;99.90;;;;;;5010789;28;20322;-67
2022/07/08 00:03:03;;;;;;;1.77;1.45;;;15.40;99.90;;;;;;5005913;28;20478;-68
2022/07/08 00:05:30;;;;;;;1.60;1.50;;;15.40;99.90;;;;;;5010330;28;20466;-66
2022/07/08 00:07:58;;;;;;;4.28;1.30;;;15.40;99.90;;;;;;5011609;28;20040;-67
2022/07/08 00:10:25;;;;;;;2.08;1.30;;;15.40;99.90;;;;;;5004288;28;20043;-67
2022/07/08 00:12:52;;;;;;;1.60;1.50;;;15.40;99.90;;;;;;5008331;28;20547;-67
2022/07/08 00:15:21;;;;;;;3.38;1.75;;;15.40;99.90;;;;;;5011118;28;20510;-67
2022/07/08 00:17:48;;;;;;;3.85;1.63;;;15.40;99.90;;;;;;5009354;28;20044;-67
2022/07/08 00:20:16;;;;;;;1.75;1.65;;;15.40;99.90;;;;;;5009897;28;20036;-68
2022/07/08 00:22:43;;;;;;;1.75;1.65;;;15.40;99.90;;;;;;5011688;28;20049;-66
2022/07/08 00:25:10;;;;;;;1.75;1.20;;;15.40;99.90;;;;;;5008665;28;20609;-66
2022/07/08 00:27:36;;;;;;;;;;;15.40;99.90;;;;;;5005848;28;20728;-67
2022/07/08 00:30:04;;;;;;;1.90;1.80;;;15.40;99.90;;;;;;5011176;28;20454;-67
2022/07/08 00:32:31;;;;;;;4.95;1.83;;;15.40;99.90;;;;;;5008528;28;20040;-66
2022/07/08 00:34:58;;;;;;;5.82;2.25;;;15.40;99.90;;;;;;5003915;28;20042;-68
2022/07/08 00:37:24;;;;;;;;;;;15.40;99.90;;;;;;5005588;28;20041;-67
2022/07/08 00:39:51;;;;;;;2.33;1.58;;;15.40;99.90;;;;;;5010494;28;20673;-66
2022/07/08 00:42:18;;;;;;;;;;;15.40;99.90;;;;;;5011003;28;20090;-66
2022/07/08 00:44:45;;;;;;;4.88;2.20;;;15.40;99.90;;;;;;5015345;28;20744;-67
2022/07/08 00:47:12;;;;;;;;;;;15.40;99.90;;;;;;5026581;28;20139;-67
2022/07/08 00:49:42;;;;;;;2.97;2.03;;;15.30;99.90;;;;;;5011231;28;19920;-66
2022/07/08 00:52:09;;;;;;;2.60;2.10;;;15.30;99.90;;;;;;5008857;28;20194;-66
2022/07/08 00:54:37;;;;;;;4.07;2.00;;;15.30;99.90;;;;;;5009043;28;20059;-66
2022/07/08 00:57:05;;;;;;;3.45;1.85;;;15.30;99.90;;;;;;5011812;28;20567;-65
2022/07/08 00:59:32;;;;;;;2.65;1.58;;;15.30;99.90;;;;;;5008055;28;20037;-67
2022/07/08 01:01:59;;;;;;;2.38;2.00;;;15.30;99.90;;;;;;5008163;28;20778;-67
2022/07/08 01:04:26;;;;;;;1.63;1.40;;;15.30;99.90;;;;;;5009068;28;20827;-66
2022/07/08 01:06:53;;;;;;;5.80;1.70;;;15.30;99.90;;;;;;5006946;28;21002;-66
2022/07/08 01:09:20;;;;;;;2.22;2.00;;;15.20;99.90;;;;;;5014887;28;20120;-68
2022/07/08 01:11:48;;;;;;;2.00;1.75;;;15.20;99.90;;;;;;5015076;28;20748;-67
2022/07/08 01:14:15;;;;;;;1.73;1.63;;;15.20;99.90;;;;;;5008208;28;20570;-65
2022/07/08 01:16:43;;;;;;;1.40;1.30;;;15.20;99.90;;;;;;5027830;28;20198;-67
2022/07/08 01:19:10;;;;;;;1.60;1.50;;;15.20;99.90;;;;;;5029541;28;20823;-67
2022/07/08 01:21:37;;;;;;;3.15;1.33;;;15.20;99.90;;;;;;5029789;28;20040;-66
2022/07/08 01:24:04;;;;;;;1.77;1.55;;;15.20;99.90;;;;;;5027404;28;20120;-67
2022/07/08 01:26:31;;;;;;;4.30;1.80;;;15.20;99.90;;;;;;5028806;28;20367;-66
2022/07/08 01:28:59;;;;;;;2.88;1.85;;;15.20;99.90;;;;;;5026284;28;20048;-66
2022/07/08 01:31:26;;;;;;;2.35;1.95;;;15.20;99.90;;;;;;5029888;28;20047;-67
2022/07/08 01:33:53;;;;;;;3.35;1.63;;;15.20;99.90;;;;;;5024449;28;20090;-67
2022/07/08 01:36:20;;;;;;;1.45;1.35;;;15.20;99.90;;;;;;5029576;28;20040;-66
2022/07/08 01:38:47;;;;;;;2.03;1.50;;;15.20;99.90;;;;;;5030492;28;20122;-66
2022/07/08 01:41:14;;;;;;;1.70;1.60;;;15.20;99.90;;;;;;5026587;28;20118;-67
2022/07/08 01:43:41;;;;;;;4.50;2.03;;;15.20;99.90;;;;;;5030547;28;20181;-67
2022/07/08 01:46:08;;;;;;;1.73;1.55;;;15.20;99.90;;;;;;5007411;28;20285;-67
2022/07/08 01:48:35;;;;;;;2.97;1.50;;;15.20;99.90;;;;;;5021437;28;20793;-66
2022/07/08 01:51:03;;;;;;;1.67;1.58;;;15.20;99.90;;;;;;5027875;28;20154;-67
2022/07/08 01:53:30;;;;;;;3.88;1.63;;;15.20;99.90;;;;;;5029452;28;20572;-67
2022/07/08 01:55:57;;;;;;;3.72;1.60;;;15.20;99.90;;;;;;5029696;28;20543;-67
2022/07/08 01:58:24;;;;;;;3.45;1.88;;;15.20;99.90;;;;;;5023062;28;20156;-66
2022/07/08 02:00:51;;;;;;;3.20;1.90;;;15.20;99.90;;;;;;5026720;28;20635;-66
2022/07/08 02:03:18;;;;;;;1.40;1.30;;;15.20;99.90;;;;;;5010478;28;20188;-67
2022/07/08 02:05:46;;;;;;;1.70;1.13;;;15.10;99.90;;;;;;5014114;28;20055;-66
2022/07/08 02:08:13;;;;;;;1.40;1.30;;;15.20;99.90;;;;;;5013077;28;20101;-66
2022/07/08 02:13:26;;;;;;;2.55;1.67;;;15.20;99.90;;;;;;5022657;28;20051;-66
2022/07/08 02:15:53;;;;;;;1.55;1.45;;;15.20;99.90;;;;;;5011472;28;20210;-67
2022/07/08 02:18:20;;;;;;;4.70;1.63;;;15.20;99.90;;;;;;5013107;28;20047;-67
2022/07/08 02:20:47;;;;;;;1.50;1.40;;;15.20;99.90;;;;;;5010787;28;20967;-66
2022/07/08 02:23:14;;;;;;;1.80;1.30;;;15.10;99.90;;;;;;5012830;28;20048;-66
2022/07/08 02:25:41;;;;;;;3.72;1.85;;;15.10;99.90;;;;;;5011288;28;20881;-65
2022/07/08 02:28:08;;;;;;;1.88;1.77;;;15.10;99.90;;;;;;5013636;28;20055;-66
2022/07/08 02:30:35;;;;;;;2.67;1.95;;;15.10;99.90;;;;;;5010784;28;20047;-66
2022/07/08 02:33:02;;;;;;;1.60;1.50;;;15.10;99.90;;;;;;5011165;28;20040;-66
2022/07/08 02:35:30;;;;;;;1.83;1.17;;;15.10;99.90;;;;;;5012144;28;20083;-66
2022/07/08 02:37:57;;;;;;;2.17;1.42;;;15.10;99.90;;;;;;5006599;28;20037;-66
2022/07/08 02:40:24;;;;;;;1.75;1.65;;;15.10;99.90;;;;;;5008379;28;20043;-66
2022/07/08 02:42:51;;;;;;;3.05;1.60;;;15.10;99.90;;;;;;5006836;28;20589;-66
2022/07/08 02:45:17;;;;;;;2.42;1.40;;;15.10;99.90;;;;;;5008647;28;20055;-66
2022/07/08 02:47:44;;;;;;;2.10;1.50;;;15.10;99.90;;;;;;5021519;28;20530;-65
2022/07/08 02:50:11;;;;;;;2.58;1.77;;;15.10;99.90;;;;;;5030209;28;20044;-66
2022/07/08 02:52:39;;;;;;;1.75;1.65;;;15.00;99.90;;;;;;5030677;28;20780;-66
2022/07/08 02:55:06;;;;;;;1.98;1.65;;;15.00;99.90;;;;;;5010523;28;20063;-67
2022/07/08 02:57:33;;;;;;;5.03;1.83;;;15.00;99.90;;;;;;5033230;28;20197;-67
2022/07/08 03:00:00;;;;;;;2.35;1.40;;;15.00;99.90;;;;;;5026439;28;20044;-67
2022/07/08 03:02:27;;;;;;;3.33;1.42;;;15.00;99.90;;;;;;5030455;28;20891;-66
2022/07/08 03:04:54;;;;;;;3.90;1.80;;;15.00;99.90;;;;;;5013403;28;20133;-66
2022/07/08 03:07:21;;;;;;;1.88;1.60;;;15.00;99.90;;;;;;5030177;28;20139;-66
2022/07/08 03:09:48;;;;;;;2.35;2.15;;;14.90;99.90;;;;;;5029975;28;20857;-67
2022/07/08 03:12:16;;;;;;;3.75;2.42;;;14.90;99.90;;;;;;5014284;28;20144;-67
2022/07/08 03:14:43;;;;;;;3.05;1.95;;;14.90;99.90;;;;;;4994359;28;20533;-67
2022/07/08 03:17:10;;;;;;;3.10;1.55;;;14.90;99.90;;;;;;5028161;28;20861;-66
2022/07/08 03:19:37;;;;;;;2.20;1.40;;;14.80;99.90;;;;;;5032930;28;20036;-67
2022/07/08 03:22:05;;;;;;;2.63;1.60;;;14.80;99.90;;;;;;5032320;28;20960;-67
2022/07/08 03:24:32;;;;;;;1.77;1.67;;;14.80;99.90;;;;;;5033458;28;20136;-66
2022/07/08 03:26:59;;;;;;;3.20;2.00;;;14.80;99.90;;;;;;5031777;28;20427;-68
2022/07/08 03:29:26;;;;;;;2.55;2.00;;;14.70;99.90;;;;;;5031027;28;20897;-67
2022/07/08 03:31:54;;;;;;;2.22;1.65;;;14.70;99.90;;;;;;5029402;28;20790;-67
2022/07/08 03:34:21;;;;;;;2.60;2.30;;;14.60;99.90;;;;;;5027835;28;20534;-66
2022/07/08 03:36:48;;;;;;;5.60;1.73;;;14.60;99.90;;;;;;5032001;28;20055;-67
2022/07/08 03:39:15;;;;;;;2.92;2.63;;;14.60;99.90;;;;;;5011265;28;20087;-67
2022/07/08 03:41:42;;;;;;;1.83;1.67;;;14.60;99.90;;;;;;5029679;28;20036;-67
2022/07/08 03:44:10;;;;;;;2.60;1.77;;;14.60;99.90;;;;;;5012014;28;20517;-67
2022/07/08 03:46:36;;;;;;;2.65;1.98;;;14.50;99.90;;;;;;5024137;28;20048;-67
2022/07/08 03:49:04;;;;;;;2.70;1.63;;;14.50;99.90;;;;;;5025103;28;20040;-68
2022/07/08 03:51:31;;;;;;;1.60;1.50;;;14.50;99.90;;;;;;5026500;28;20054;-66
2022/07/08 03:53:58;;;;;;;1.85;1.75;;;14.50;99.90;;;;;;5032702;28;20194;-66
2022/07/08 03:56:25;;;;;;;6.88;2.42;;;14.50;99.90;;;;;;5029518;28;20043;-68
2022/07/08 03:58:52;;;;;;;6.70;2.33;;;14.40;99.90;;;;;;5031468;28;20036;-66
2022/07/08 04:01:20;;;;;;;2.42;1.70;;;14.40;99.90;;;;;;4990520;28;20043;-68
2022/07/08 04:03:48;;;;;;;2.58;1.60;;;14.30;99.90;;;;;;5009065;28;20427;-67
2022/07/08 04:06:15;;;;;;;1.85;1.60;;;14.30;99.90;;;;;;4994061;28;20141;-68
2022/07/08 04:08:43;;;;;;;1.65;1.55;;;14.30;99.90;;;;;;5007600;28;20083;-67
2022/07/08 04:11:11;;;;;;;3.50;2.40;;;14.30;99.90;;;;;;5025598;28;20048;-67
2022/07/08 04:13:39;;;;;;;2.80;2.30;;;14.30;99.90;;;;;;5005563;28;20043;-68
2022/07/08 04:16:11;;;;;;;3.15;2.33;;;14.30;99.90;;;;;;5022723;28;20051;-67
2022/07/08 04:18:40;;;;;;;3.78;2.33;;;14.30;99.90;;;;;;5029117;28;20040;-67
2022/07/08 04:21:08;;;;;;;7.10;2.58;;;14.30;99.90;;;;;;5029035;28;20070;-66
2022/07/08 04:23:35;;;;;;;3.28;2.50;;;14.30;99.90;;;;;;5030915;28;20043;-66
2022/07/08 04:26:02;;;;;;;3.97;2.78;;;14.20;99.90;;;;;;5010527;28;21052;-67
2022/07/08 04:28:30;;;;;;;2.60;2.40;;;14.20;99.90;;;;;;5030865;28;20324;-66
2022/07/08 04:30:58;;;;;;;7.57;3.00;;;14.20;99.90;;;;;;5026203;28;20156;-68
2022/07/08 04:33:25;;;;;;;3.67;2.25;;;14.10;99.90;;;;;;5026810;28;20335;-67
2022/07/08 04:35:52;;;;;;;2.65;2.45;;;14.10;99.90;;;;;;5022433;28;20044;-66
2022/07/08 04:38:20;;;;;;;3.90;2.80;;;14.10;99.90;;;;;;5027478;28;20036;-66
2022/07/08 04:40:47;;;;;;;4.03;2.60;;;14.10;99.90;;;;;;5030744;28;20117;-66
2022/07/08 04:43:14;;;;;;;4.40;2.60;;;14.10;99.90;;;;;;5008280;28;20660;-66
2022/07/08 04:45:47;;;;;;;2.95;2.50;;;14.10;99.90;;;;;;5029725;28;20064;-66
2022/07/08 04:48:15;;;;;;;3.15;2.53;;;14.00;99.90;;;;;;5021652;28;20059;-67
2022/07/08 04:50:42;;;;;;;3.53;2.83;;;14.00;99.90;;;;;;5023486;28;20040;-66
2022/07/08 04:53:09;;;;;;;4.25;2.88;;;13.90;99.90;;;;;;5028857;28;20758;-65
2022/07/08 04:55:36;;;;;;;3.58;2.90;;;13.80;99.90;;;;;;5012101;28;21014;-66
2022/07/08 04:58:04;;;;;;;5.93;3.20;;;13.70;99.90;;;;;;5030184;28;20417;-67
2022/07/08 05:00:33;;;;;;;3.60;2.60;;;13.70;99.90;;;;;;5007906;28;20352;-67
2022/07/08 05:03:01;;;;;;;3.78;2.67;;;13.70;99.90;;;;;;5025974;28;20047;-67
2022/07/08 05:05:30;;;;;;;10.25;3.42;;;13.70;99.90;;;;;;5004612;28;20039;-66
2022/07/08 05:07:59;;;;;;;3.58;2.80;;;13.60;99.90;;;;;;5031222;28;20098;-67
2022/07/08 05:10:27;;;;;;;5.13;3.15;;;13.60;99.90;;;;;;5005028;28;20507;-66
2022/07/08 05:12:57;;;;;;;3.92;2.97;;;13.70;99.90;;;;;;5021902;28;20418;-67
2022/07/08 05:15:25;;;;;;;4.55;3.40;;;13.70;99.90;;;;;;5010595;28;20037;-59
2022/07/08 05:17:52;;;;;;;3.70;3.10;;;13.70;99.90;;;;;;5008502;28;20870;-59
2022/07/08 05:20:20;;;;;;;6.28;3.92;;;13.80;99.90;;;;;;5007666;28;20840;-58
2022/07/08 05:22:47;;;;;;;4.10;3.67;;;13.80;99.90;;;;;;5006876;28;20889;-58
2022/07/08 05:25:15;;;;;;;7.70;3.55;;;13.80;99.90;;;;;;5008532;28;20555;-59
2022/07/08 05:27:42;;;;;;;8.82;3.88;;;13.90;99.90;;;;;;5008096;28;20045;-56
2022/07/08 05:30:11;;;;;;;5.82;3.22;;;13.90;99.90;;;;;;5010906;28;20662;-55
2022/07/08 05:32:39;;;;;;;5.55;3.67;;;14.00;99.90;;;;;;5008297;28;20183;-55
2022/07/08 05:35:06;;;;;;;9.23;3.47;;;14.00;99.90;;;;;;5006684;28;20109;-56
2022/07/08 05:37:37;;;;;;;5.85;3.50;;;14.00;99.90;;;;;;5008262;28;20037;-54
2022/07/08 05:40:09;;;;;;;6.15;3.78;;;14.00;99.90;;;;;;5010997;28;20041;-55
2022/07/08 05:42:37;;;;;;;4.13;2.97;;;14.10;99.90;;;;;;4997461;28;20033;-55
2022/07/08 05:45:06;;;;;;;7.22;3.35;;;14.10;99.90;;;;;;5006617;28;20141;-55
2022/07/08 05:47:33;;;;;;;4.22;3.58;;;14.10;99.90;;;;;;4999436;28;20039;-55
2022/07/08 05:50:01;;;;;;;6.53;3.83;;;14.20;99.90;;;;;;5015917;28;20274;-55
2022/07/08 05:52:28;;;;;;;6.15;4.32;;;14.30;99.90;;;;;;5031096;28;20046;-55
2022/07/08 05:54:55;;;;;;;5.50;3.17;;;14.30;99.90;;;;;;5028161;28;20389;-55
2022/07/08 05:57:22;;;;;;;5.65;3.35;;;14.30;99.90;;;;;;5012705;28;20229;-56
2022/07/08 05:59:52;;;;;;;9.10;4.15;;;14.40;99.90;;;;;;5033556;28;20066;-54
2022/07/08 06:02:19;;;;;;;7.13;3.97;;;14.40;99.90;;;;;;5028997;28;20261;-55
2022/07/08 06:04:46;;;;;;;8.20;3.22;;;14.50;99.90;;;;;;5031984;28;20077;-55
2022/07/08 06:07:14;;;;;;;12.27;3.85;;;14.60;99.90;;;;;;5032144;28;20321;-56
2022/07/08 06:09:41;;;;;;;9.05;3.47;;;14.80;99.90;;;;;;5011633;28;20213;-56
2022/07/08 06:12:09;;;;;;;6.25;3.85;;;15.00;99.90;;;;;;4995404;28;20442;-55
2022/07/08 06:14:36;;;;;;;8.98;3.90;;;15.20;99.90;;;;;;5013234;28;20573;-56
2022/07/08 06:17:03;;;;;;;9.25;3.05;;;15.40;99.90;;;;;;5014601;28;20149;-55
2022/07/08 06:19:30;;;;;;;15.40;3.33;;;15.60;99.90;;;;;;4993840;28;20870;-55
2022/07/08 06:21:57;;;;;;;6.85;2.90;;;15.70;99.90;;;;;;5015724;28;20199;-55
2022/07/08 06:24:24;;;;;;;9.10;3.25;;;15.90;99.90;;;;;;5008513;28;20685;-54
2022/07/08 06:26:52;;;;;;;10.07;3.63;;;16.00;99.90;;;;;;5012227;28;20064;-55
2022/07/08 06:29:20;;;;;;;3.85;2.17;;;16.10;99.90;;;;;;5009546;28;20426;-57
2022/07/08 06:31:47;;;;;;;10.93;3.70;;;16.20;99.90;;;;;;5012304;28;20041;-54
2022/07/08 06:34:14;;;;;;;8.32;2.67;;;16.30;99.90;;;;;;5007175;28;20202;-55
2022/07/08 06:36:41;;;;;;;10.00;3.13;;;16.40;99.90;;;;;;5011354;28;20041;-56
2022/07/08 06:39:08;;;;;;;6.65;2.45;;;16.40;99.90;;;;;;4974584;28;20045;-55
2022/07/08 06:41:36;;;;;;;8.32;2.80;;;16.50;99.90;;;;;;5010195;28;20206;-68
2022/07/08 06:44:04;;;;;;;7.75;2.58;;;16.60;99.90;;;;;;5010466;28;20041;-53
2022/07/08 06:46:32;;;;;;;9.75;3.55;;;16.60;99.90;;;;;;5010011;28;20041;-53
2022/07/08 06:48:59;;;;;;;10.02;2.83;;;16.60;99.90;;;;;;5016808;28;20063;-58
2022/07/08 06:51:26;;;;;;;13.05;2.65;;;16.60;99.90;;;;;;5018410;28;20217;-56
2022/07/08 06:56:40;;;;;;;10.65;2.72;;;16.70;99.90;;;;;;5018407;28;20052;-58
2022/07/08 06:59:07;;;;;;;10.77;2.85;;;16.70;99.90;;;;;;5009584;28;20202;-57
2022/07/08 07:01:35;;;;;;;11.50;2.97;;;16.80;99.90;;;;;;5010244;28;20136;-58
2022/07/08 07:04:02;;;;;;;9.45;2.45;;;16.80;99.90;;;;;;5008326;28;20561;-59
2022/07/08 07:06:30;;;;;;;9.60;2.95;;;16.90;99.90;;;;;;5023755;28;20284;-56
2022/07/08 07:08:57;;;;;;;5.15;2.42;;;16.90;99.90;;;;;;4995356;28;20539;-54
2022/07/08 07:11:24;;;;;;;11.50;3.05;;;17.00;99.90;;;;;;5005675;28;20154;-55
2022/07/08 07:13:51;;;;;;;10.70;2.67;;;17.00;99.90;;;;;;5020706;28;20237;-56
2022/07/08 07:16:18;;;;;;;10.65;3.42;;;17.10;99.90;;;;;;5011831;28;20051;-56
2022/07/08 07:18:45;;;;;;;4.75;2.10;;;17.20;99.90;;;;;;5032107;28;20072;-56
2022/07/08 07:21:12;;;;;;;7.97;2.50;;;17.40;99.90;;;;;;5032769;28;20040;-58
2022/07/08 07:23:39;;;;;;;8.13;2.97;;;17.50;99.90;;;;;;5032684;28;20415;-57
2022/07/08 07:26:07;;;;;;;12.73;3.55;;;17.60;99.90;;;;;;5029302;28;20559;-58
2022/07/08 07:28:35;;;;;;;9.98;2.72;;;17.60;99.90;;;;;;5011683;28;20044;-63
2022/07/08 07:31:02;;;;;;;4.55;2.72;;;17.70;99.90;;;;;;5026885;28;20040;-62
2022/07/08 07:33:29;;;;;;;9.00;2.92;;;17.80;99.90;;;;;;5010458;28;20140;-63
2022/07/08 07:35:57;;;;;;;12.15;3.28;;;17.90;99.90;;;;;;5030552;28;20324;-65
2022/07/08 07:38:24;;;;;;;5.13;2.45;;;18.00;99.90;;;;;;5024815;28;20040;-64
2022/07/08 07:40:52;;;;;;;6.05;2.42;;;18.00;99.90;;;;;;4993585;28;20032;-67
2022/07/08 07:43:19;;;;;;;4.55;2.35;;;18.10;99.90;;;;;;5006619;28;20788;-65
2022/07/08 07:45:46;;;;;;;11.02;2.78;;;18.20;99.90;;;;;;5008101;28;20201;-63
2022/07/08 07:48:14;;;;;;;10.75;3.15;;;18.40;99.90;;;;;;5016522;28;20546;-63
2022/07/08 07:50:41;;;;;;;7.13;2.30;;;18.50;99.90;;;;;;5009391;28;20075;-66
2022/07/08 07:53:08;;;;;;;3.65;2.25;;;18.60;99.90;;;;;;5005499;28;20562;-66
2022/07/08 07:55:36;;;;;;;11.80;3.03;;;18.70;99.90;;;;;;5028129;28;20047;-66
2022/07/08 07:58:03;;;;;;;9.07;2.72;;;18.80;99.90;;;;;;5028043;28;20036;-65
2022/07/08 08:00:30;;;;;;;6.05;2.88;;;18.80;99.90;;;;;;5011813;28;20051;-65
2022/07/08 08:02:57;;;;;;;5.80;2.45;;;18.70;99.90;;;;;;5028988;28;20040;-67
2022/07/08 08:05:25;;;;;;;7.35;2.13;;;18.60;99.90;;;;;;5025507;28;20877;-66
2022/07/08 08:07:53;;;;;;;7.95;3.20;;;18.60;99.90;;;;;;5029126;28;20975;-65
2022/07/08 08:10:20;;;;;;;10.00;2.90;;;18.60;99.90;;;;;;5028774;28;20555;-65
2022/07/08 08:12:47;;;;;;;9.50;2.10;;;18.60;99.90;;;;;;5006154;28;20041;-65
2022/07/08 08:15:15;;;;;;;5.13;2.42;;;18.50;99.90;;;;;;5014730;28;20032;-65
2022/07/08 08:17:42;;;;;;;9.30;3.17;;;18.40;99.90;;;;;;5025307;28;20822;-64
2022/07/08 08:20:12;;;;;;;11.02;4.05;;;18.20;99.90;;;;;;5029098;28;20040;-64
2022/07/08 08:22:40;;;;;;;6.45;2.88;;;18.10;99.90;;;;;;5026073;28;20481;-64
2022/07/08 08:25:27;;;;;;;9.50;2.95;;;18.10;99.90;;;;;;5027658;28;20040;-64
2022/07/08 08:27:56;;;;;;;7.95;2.92;;;18.40;99.90;;;;;;5030218;28;20135;-61
2022/07/08 08:30:23;;;;;;;10.30;3.40;;;18.50;99.90;;;;;;5029673;28;20040;-61
2022/07/08 08:32:50;;;;;;;5.72;2.83;;;18.60;99.90;;;;;;5028241;28;20043;-66
2022/07/08 08:35:17;;;;;;;7.03;2.50;;;18.70;99.90;;;;;;5024154;28;20956;-57
2022/07/08 08:37:45;;;;;;;10.95;3.10;;;18.90;99.90;;;;;;5010925;28;20367;-57
2022/07/08 08:40:12;;;;;;;8.50;3.33;;;19.00;99.90;;;;;;5026428;28;20047;-62
2022/07/08 08:42:41;;;;;;;9.23;3.00;;;19.00;99.90;;;;;;5029214;28;20920;-56
2022/07/08 08:45:09;;;;;;;8.00;3.00;;;19.10;99.90;;;;;;5028169;28;20847;-55
2022/07/08 08:47:37;;;;;;;7.65;2.47;;;19.20;99.90;;;;;;5006829;28;20656;-55
2022/07/08 08:52:58;;;;;;;15.10;3.20;;;19.30;99.90;;;;;;5012851;28;20789;-53
2022/07/08 08:55:27;;;;;;;11.05;3.95;;;19.30;99.90;;;;;;5025794;28;20036;-53
2022/07/08 08:58:00;;;;;;;13.57;3.00;;;19.30;99.90;;;;;;5010338;28;20062;-56
2022/07/08 09:00:29;;;;;;;9.07;3.45;;;19.20;99.90;;;;;;5026150;28;20140;-57
2022/07/08 09:02:57;;;;;;;11.10;3.40;;;19.00;99.90;;;;;;5014600;28;20036;-57
2022/07/08 09:05:25;;;;;;;6.40;2.55;;;19.00;99.90;;;;;;5002942;28;20559;-57
2022/07/08 09:07:53;;;;;;;8.52;3.70;;;18.90;99.90;;;;;;5004732;28;20033;-57
2022/07/08 09:10:21;;;;;;;10.68;4.18;;;19.10;99.90;;;;;;4995888;28;20213;-58
2022/07/08 09:13:10;;;;;;;9.43;3.10;;;19.40;99.90;;;;;;5024975;28;20398;-57
2022/07/08 09:15:49;;;;;;;8.07;3.15;;;19.90;99.90;;;;;;5020292;28;20036;-55
2022/07/08 09:18:18;;;;;;;9.00;4.53;;;20.40;99.90;;;;;;5027789;28;20059;-57
2022/07/08 09:20:51;;;;;;;5.57;2.33;;;20.80;99.90;;;;;;5008960;28;20040;-55
2022/07/08 09:23:27;;;;;;;8.13;2.70;;;21.30;99.90;;;;;;5027751;28;20451;-57
2022/07/08 09:26:05;;;;;;;6.38;2.25;;;21.70;99.90;;;;;;5010393;28;20040;-56
2022/07/08 09:28:44;;;;;;;8.13;2.45;;;22.10;99.90;;;;;;5025303;28;20604;-56
2022/07/08 09:31:13;;;;;;;7.97;2.25;;;22.50;97.00;;;;;;5029059;28;20235;-56
2022/07/08 09:33:42;;;;;;;7.03;2.50;;;22.80;92.80;;;;;;5027891;28;20389;-57
2022/07/08 09:36:10;;;;;;;12.43;2.50;;;22.90;88.10;;;;;;5023803;28;20901;-57
2022/07/08 09:38:40;;;;;;;8.05;2.75;;;22.80;75.90;;;;;;5012866;28;20040;-57
2022/07/08 09:41:10;;;;;;;8.32;2.38;;;22.50;79.40;;;;;;5008473;28;20036;-57
2022/07/08 09:43:49;;;;;;;7.63;2.75;;;22.20;84.20;;;;;;5011346;28;20174;-57
2022/07/08 09:46:17;;;;;;;5.82;2.08;;;22.00;81.50;;;;;;4994156;28;20403;-56
2022/07/08 09:48:45;;;;;;;16.75;3.08;;;21.70;88.10;;;;;;5021199;28;20568;-56
2022/07/08 09:51:15;;;;;;;6.50;2.63;;;21.50;91.50;;;;;;5031440;28;20044;-56
2022/07/08 09:53:43;;;;;;;7.82;1.92;;;21.30;92.70;;;;;;5024496;28;20052;-57
2022/07/08 09:56:10;;;;;;;7.30;2.47;;;21.40;96.70;;;;;;5026467;28;20174;-57
2022/07/08 09:58:38;;;;;;;6.60;2.70;;;21.70;97.30;;;;;;5008929;28;20283;-56
2022/07/08 10:01:06;;;;;;;7.07;3.13;;;22.00;99.90;;;;;;5009064;28;20551;-56
2022/07/08 10:03:35;;;;;;;8.90;2.40;;;22.40;97.30;;;;;;5027359;28;20529;-56
2022/07/08 10:06:03;;;;;;;9.95;2.60;;;22.70;91.60;;;;;;5027373;28;20044;-55
2022/07/08 10:08:31;;;;;;;12.52;2.95;;;23.00;86.40;;;;;;5011412;28;20037;-55
2022/07/08 10:11:05;;;;;;;15.52;2.97;;;23.40;77.70;;;;;;5015498;28;20040;-56
2022/07/08 10:13:34;;;;;;;9.30;2.92;;;23.60;83.50;;;;;;5000090;28;20567;-55
2022/07/08 10:16:04;;;;;;;7.47;2.00;;;23.70;75.60;;;;;;5000634;28;20960;-55
2022/07/08 10:18:38;;;;;;;3.53;1.80;;;23.70;66.40;;;;;;5029986;28;20570;-65
2022/07/08 10:21:10;;;;;;;7.15;2.13;;;23.80;65.80;;;;;;5028031;28;20040;-66
2022/07/08 10:23:48;;;;;;;3.53;1.80;;;23.80;65.40;;;;;;5009645;28;20043;-68
2022/07/08 10:26:24;;;;;;;10.82;2.38;;;23.80;60.80;;;;;;5028474;28;20032;-67
2022/07/08 10:29:05;;;;;;;9.77;2.22;;;23.80;62.80;;;;;;5027897;28;20050;-67
2022/07/08 10:31:51;;;;;;;4.82;2.03;;;23.90;64.70;;;;;;5031560;28;20047;-67
2022/07/08 10:34:21;;;;;;;4.65;1.85;;;23.90;59.00;;;;;;5028697;28;20114;-66
2022/07/08 10:36:50;;;;;;;4.80;1.83;;;24.00;58.50;;;;;;5031514;28;20109;-64
2022/07/08 10:39:40;;;;;;;5.07;1.83;;;24.00;57.50;;;;;;5029550;28;20036;-67
2022/07/08 10:42:09;;;;;;;3.00;1.95;;;24.20;58.30;;;;;;5030515;28;20129;-67
2022/07/08 10:44:45;;;;;;;3.60;1.60;;;24.20;57.20;;;;;;5027328;28;20051;-66
2022/07/08 10:47:17;;;;;;;4.93;1.65;;;24.30;65.90;;;;;;5026899;28;20106;-66
2022/07/08 10:49:49;;;;;;;7.90;2.20;;;24.50;64.50;;;;;;5025119;28;20616;-67
2022/07/08 10:52:20;;;;;;;6.47;2.10;;;24.50;60.90;;;;;;5030458;28;20208;-67
2022/07/08 10:55:06;;;;;;;5.50;1.77;;;24.40;61.60;;;;;;5029775;28;20899;-66
2022/07/08 10:57:35;;;;;;;5.75;2.15;;;24.20;64.80;;;;;;5004624;28;20040;-67
2022/07/08 11:00:14;;;;;;;3.45;1.52;;;24.20;66.40;;;;;;5012744;28;20554;-63
2022/07/08 11:02:45;;;;;;;5.63;1.70;;;24.30;67.20;;;;;;5028559;28;20051;-64
2022/07/08 11:05:35;;;;;;;6.15;2.28;;;24.40;61.60;;;;;;5010779;28;20048;-64
2022/07/08 11:08:21;;;;;;;7.45;1.92;;;24.30;63.80;;;;;;5008846;28;20200;-63
2022/07/08 11:10:49;;;;;;;3.90;1.83;;;24.30;61.30;;;;;;4997293;28;20543;-63
2022/07/08 11:13:23;;;;;;;7.15;1.85;;;24.10;60.70;;;;;;5014884;28;20054;-64
2022/07/08 11:15:51;;;;;;;3.88;2.33;;;23.90;63.10;;;;;;5013297;28;20045;-64
2022/07/08 11:18:23;;;;;;;4.45;1.60;;;23.60;61.90;;;;;;5008592;28;20560;-64
2022/07/08 11:20:58;;;;;;;4.50;1.65;;;23.30;63.30;;;;;;5009955;28;20213;-64
2022/07/08 11:23:27;;;;;;;7.57;2.17;;;23.20;66.60;;;;;;5010654;28;20044;-64
2022/07/08 11:25:57;;;;;;;6.07;1.85;;;23.20;69.40;;;;;;4991227;28;20138;-63
2022/07/08 11:28:25;;;;;;;6.47;2.00;;;23.40;69.30;;;;;;5008198;28;20126;-64
2022/07/08 11:30:53;;;;;;;5.45;1.92;;;23.60;66.70;;;;;;5006404;28;20294;-64
2022/07/08 11:33:42;;;;;;;12.70;1.73;;;23.90;67.90;;;;;;5011829;28;20730;-62
2022/07/08 11:36:19;;;;;;;4.22;1.83;;;24.10;68.00;;;;;;4976626;28;20043;-62
2022/07/08 11:38:49;;;;;;;3.13;1.50;;;24.30;67.90;;;;;;4975322;28;20614;-62
2022/07/08 11:41:20;;;;;;;3.53;1.80;;;24.50;67.70;;;;;;5009453;28;20336;-62
2022/07/08 11:43:49;;;;;;;4.90;1.80;;;24.80;65.80;;;;;;5005237;28;20814;-62
2022/07/08 11:46:23;;;;;;;8.23;2.30;;;24.90;61.00;;;;;;5008747;28;20032;-62
2022/07/08 11:48:52;;;;;;;6.43;1.75;;;25.00;64.70;;;;;;5009304;28;20082;-62
2022/07/08 11:51:19;;;;;;;9.52;1.70;;;25.10;63.10;;;;;;5009199;28;20210;-63
2022/07/08 11:53:47;;;;;;;5.45;1.77;;;25.10;60.30;;;;;;5005836;28;20052;-63
2022/07/08 11:56:14;;;;;;;11.00;2.20;;;25.10;57.60;;;;;;5020411;28;20189;-63
2022/07/08 11:58:41;;;;;;;4.03;1.92;;;24.90;57.50;;;;;;5008158;28;20044;-63
2022/07/08 12:01:09;;;;;;;3.30;1.52;;;24.60;59.00;;;;;;5029238;28;20201;-63
2022/07/08 12:03:37;;;;;;;3.17;1.45;;;24.30;58.70;;;;;;5030341;28;20137;-63
2022/07/08 12:06:05;;;;;;;4.47;1.50;;;24.10;60.20;;;;;;5028343;28;20224;-63
2022/07/08 12:08:35;;;;;;;2.72;1.90;;;24.10;64.40;;;;;;5029640;28;20106;-63
2022/07/08 12:11:22;;;;;;;3.05;1.50;;;24.20;64.30;;;;;;5000087;28;20048;-64
2022/07/08 12:13:51;;;;;;;6.60;1.90;;;24.10;65.40;;;;;;5011716;28;20051;-63
2022/07/08 12:16:28;;;;;;;6.07;1.95;;;24.30;68.00;;;;;;5026111;28;20039;-63
2022/07/08 12:18:55;;;;;;;6.45;1.95;;;24.40;68.30;;;;;;5027658;28;20043;-63
2022/07/08 12:21:23;;;;;;;5.85;1.92;;;24.60;66.50;;;;;;5024064;28;20454;-61
2022/07/08 12:23:56;;;;;;;2.58;1.67;;;24.70;63.80;;;;;;5028787;28;20055;-64
2022/07/08 12:26:24;;;;;;;6.18;1.92;;;24.80;62.30;;;;;;5011840;28;20348;-63
2022/07/08 12:28:52;;;;;;;8.38;2.00;;;24.90;64.30;;;;;;5026789;28;20043;-62
2022/07/08 12:31:31;;;;;;;3.65;1.67;;;25.00;62.40;;;;;;5031808;28;20089;-65
2022/07/08 12:34:08;;;;;;;3.03;1.60;;;25.20;61.80;;;;;;5027536;28;20040;-61
2022/07/08 12:36:35;;;;;;;14.57;1.83;;;25.40;60.40;;;;;;5031042;28;20043;-61
2022/07/08 12:39:13;;;;;;;3.22;1.55;;;25.50;61.10;;;;;;5026520;28;20040;-61
2022/07/08 12:41:43;;;;;;;3.30;1.52;;;25.60;59.50;;;;;;5030549;28;20040;-61
2022/07/08 12:44:34;;;;;;;5.93;1.48;;;25.60;56.30;;;;;;5029714;28;20039;-62
2022/07/08 12:47:04;;;;;;;6.32;1.90;;;25.30;56.60;;;;;;5026814;28;20062;-62
2022/07/08 12:49:35;;;;;;;3.08;1.27;;;24.90;56.60;;;;;;5024414;28;20050;-60
2022/07/08 12:52:04;;;;;;;2.42;1.00;;;24.50;58.20;;;;;;5027888;28;20069;-62
2022/07/08 12:54:31;;;;;;;4.70;1.45;;;24.40;60.60;;;;;;5031517;28;20043;-63
2022/07/08 12:57:00;;;;;;;3.55;1.13;;;24.40;60.30;;;;;;5006464;28;20141;-60
2022/07/08 12:59:28;;;;;;;1.67;1.05;;;24.60;62.10;;;;;;5011774;28;20835;-59
2022/07/08 13:01:56;;;;;;;2.60;1.27;;;24.70;58.40;;;;;;5024238;28;20051;-61